Time;durP1;ratioP1;P1;durP2;ratioP2;P2;SDS_P1;SDS_P2;PMS_P1;PMS_P2;Temp;Humidity;BMP_temperature;BMP_pressure;BME280_temperature;BME280_humidity;BME280_pressure;Samples;Min_cycle;Max_cycle;Signal;HPM_P1;HPM_P2
2022/04/02 00:01:31;;;;;;;;;;;4.20;99.90;;;;;;4995601;28;19953;-86
2022/04/02 00:03:58;;;;;;;;;;;5.40;99.90;;;;;;4995127;28;19926;-85
2022/04/02 00:06:24;;;;;;;;;;;4.20;99.90;;;;;;4995778;28;20411;-85
2022/04/02 00:08:51;;;;;;;;;;;3.80;99.90;;;;;;4994993;28;19969;-84
2022/04/02 00:11:18;;;;;;;;;;;3.80;99.90;;;;;;4987264;28;20297;-85
2022/04/02 00:13:45;;;;;;;;;;;3.70;99.90;;;;;;4994535;28;19981;-84
2022/04/02 00:16:13;;;;;;;;;;;3.60;99.90;;;;;;4994717;28;19925;-86
2022/04/02 00:18:41;;;;;;;;;;;4.10;99.90;;;;;;4994650;28;19984;-85
2022/04/02 00:21:08;;;;;;;;;;;3.70;99.90;;;;;;4994022;28;19926;-85
2022/04/02 00:23:39;;;;;;;;;;;3.60;99.90;;;;;;4994733;28;19964;-86
2022/04/02 00:26:07;;;;;;;;;;;3.30;99.90;;;;;;4994489;28;20008;-86
2022/04/02 00:28:35;;;;;;;;;;;3.60;99.90;;;;;;4995017;28;19926;-85
2022/04/02 00:31:01;;;;;;;;;;;3.70;99.90;;;;;;4980210;28;19926;-84
2022/04/02 00:33:30;;;;;;;;;;;4.60;99.90;;;;;;4974897;28;19926;-86
2022/04/02 00:35:56;;;;;;;;;;;3.30;99.90;;;;;;4974957;28;20366;-86
2022/04/02 00:38:23;;;;;;;;;;;4.70;99.90;;;;;;4974862;28;20385;-85
2022/04/02 00:40:50;;;;;;;;;;;4.80;99.90;;;;;;4987586;28;20434;-84
2022/04/02 00:43:24;;;;;;;;;;;3.50;99.90;;;;;;4999452;28;19926;-85
2022/04/02 00:45:51;;;;;;;;;;;3.40;99.90;;;;;;4994385;28;20343;-85
2022/04/02 00:48:18;;;;;;;;;;;3.40;99.90;;;;;;4992560;28;20425;-85
2022/04/02 00:50:47;;;;;;;;;;;4.90;99.90;;;;;;4974611;28;19933;-85
2022/04/02 00:53:14;;;;;;;;;;;3.00;99.90;;;;;;4974426;28;19926;-86
2022/04/02 00:55:42;;;;;;;;;;;3.40;99.90;;;;;;4974795;28;19926;-86
2022/04/02 00:58:10;;;;;;;;;;;3.50;99.90;;;;;;4988380;28;19980;-86
2022/04/02 01:00:37;;;;;;;;;;;4.30;99.90;;;;;;4994345;28;19932;-85
2022/04/02 01:03:04;;;;;;;;;;;3.20;99.90;;;;;;4993859;28;20350;-85
2022/04/02 01:05:31;;;;;;;;;;;4.20;99.90;;;;;;4993893;28;19936;-86
2022/04/02 01:07:59;;;;;;;;;;;3.40;99.90;;;;;;4982699;28;19981;-84
2022/04/02 01:10:26;;;;;;;;;;;3.20;99.90;;;;;;4975551;28;20041;-85
2022/04/02 01:12:52;;;;;;;;;;;3.00;99.90;;;;;;4975362;28;19980;-86
2022/04/02 01:15:19;;;;;;;;;;;2.90;99.90;;;;;;4974990;28;19930;-85
2022/04/02 01:17:46;;;;;;;;;;;1.80;99.90;;;;;;4983568;28;19933;-86
2022/04/02 01:20:13;;;;;;;;;;;3.80;99.90;;;;;;4994950;28;20289;-86
2022/04/02 01:22:41;;;;;;;;;;;3.10;99.90;;;;;;4994696;28;20368;-86
2022/04/02 01:25:09;;;;;;;;;;;2.40;99.90;;;;;;4994189;28;19973;-86
2022/04/02 01:27:35;;;;;;;;;;;3.00;99.90;;;;;;4987946;28;19926;-86
2022/04/02 01:30:03;;;;;;;;;;;3.40;99.90;;;;;;4974880;28;19980;-86
2022/04/02 01:32:29;;;;;;;;;;;3.00;99.90;;;;;;4977907;28;20324;-85
2022/04/02 01:34:56;;;;;;;;;;;4.10;99.90;;;;;;4978786;28;20361;-86
2022/04/02 01:37:23;;;;;;;;;;;3.40;99.90;;;;;;4982180;28;19972;-86
2022/04/02 01:39:51;;;;;;;;;;;2.40;99.90;;;;;;4994110;28;19969;-88
2022/04/02 01:42:20;;;;;;;;;;;4.20;99.90;;;;;;4979074;28;19926;-85
2022/04/02 01:44:51;;;;;;;;;;;2.90;99.90;;;;;;4979055;28;19926;-85
2022/04/02 01:47:18;;;;;;;;;;;2.40;99.90;;;;;;4980420;28;19981;-85
2022/04/02 01:49:45;;;;;;;;;;;3.20;99.90;;;;;;4997965;28;19926;-86
2022/04/02 01:52:12;;;;;;;;;;;3.20;99.90;;;;;;4997823;28;19976;-86
2022/04/02 01:54:39;;;;;;;;;;;3.20;99.90;;;;;;4997913;28;19981;-86
2022/04/02 01:57:07;;;;;;;;;;;3.10;99.90;;;;;;4998082;28;19988;-85
2022/04/02 01:59:34;;;;;;;;;;;3.00;99.90;;;;;;4995579;28;19926;-86
2022/04/02 02:02:01;;;;;;;;;;;3.00;99.90;;;;;;4980707;28;20408;-83
2022/04/02 02:04:28;;;;;;;;;;;3.00;99.90;;;;;;4986744;28;20062;-83
2022/04/02 02:06:55;;;;;;;;;;;2.90;99.90;;;;;;4985687;28;19950;-82
2022/04/02 02:09:21;;;;;;;;;;;3.00;99.90;;;;;;4987589;28;20016;-84
2022/04/02 02:11:48;;;;;;;;;;;3.00;99.90;;;;;;4986067;28;19926;-85
2022/04/02 02:14:16;;;;;;;;;;;3.10;99.90;;;;;;4997854;28;19926;-85
2022/04/02 02:16:43;;;;;;;;;;;2.00;99.90;;;;;;4997935;28;19929;-86
2022/04/02 02:19:10;;;;;;;;;;;4.60;99.90;;;;;;4997996;28;19965;-86
2022/04/02 02:21:37;;;;;;;;;;;4.40;99.90;;;;;;4997762;28;20356;-84
2022/04/02 02:24:04;;;;;;;;;;;3.40;99.90;;;;;;4977947;28;20421;-85
2022/04/02 02:26:31;;;;;;;;;;;3.40;99.90;;;;;;4983212;28;19932;-84
2022/04/02 02:28:57;;;;;;;;;;;4.80;99.90;;;;;;4996139;28;20373;-84
2022/04/02 02:31:26;;;;;;;;;;;3.90;99.90;;;;;;4988625;28;19926;-84
2022/04/02 02:36:37;;;;;;;;;;;3.10;99.90;;;;;;4977795;28;19937;-85
2022/04/02 02:39:04;;;;;;;;;;;2.30;99.90;;;;;;4977774;28;20300;-85
2022/04/02 02:41:30;;;;;;;;;;;4.10;99.90;;;;;;4978060;28;20411;-84
2022/04/02 02:43:57;;;;;;;;;;;4.20;99.90;;;;;;4977972;28;19926;-85
2022/04/02 02:46:25;;;;;;;;;;;3.20;99.90;;;;;;4979227;28;19926;-85
2022/04/02 02:48:52;;;;;;;;;;;3.10;99.90;;;;;;4979840;28;19930;-85
2022/04/02 02:51:19;;;;;;;;;;;4.00;99.90;;;;;;4977485;28;19977;-84
2022/04/02 02:53:46;;;;;;;;;;;3.10;99.90;;;;;;4977765;28;19926;-85
2022/04/02 02:56:12;;;;;;;;;;;3.10;99.90;;;;;;4977325;28;19977;-84
2022/04/02 02:58:39;;;;;;;;;;;3.70;99.90;;;;;;4992090;28;19980;-85
2022/04/02 03:01:06;;;;;;;;;;;3.20;99.90;;;;;;4997084;28;19934;-83
2022/04/02 03:03:34;;;;;;;;;;;3.80;99.90;;;;;;4996940;28;19926;-85
2022/04/02 03:06:01;;;;;;;;;;;2.80;99.90;;;;;;4996954;28;19980;-84
2022/04/02 03:08:28;;;;;;;;;;;2.80;99.90;;;;;;4996450;28;19926;-85
2022/04/02 03:10:55;;;;;;;;;;;2.80;99.90;;;;;;4977385;28;20023;-85
2022/04/02 03:13:22;;;;;;;;;;;2.80;99.90;;;;;;4977038;28;19926;-84
2022/04/02 03:15:51;;;;;;;;;;;3.10;99.90;;;;;;4976945;28;19933;-85
2022/04/02 03:18:18;;;;;;;;;;;2.80;99.90;;;;;;4976650;28;20359;-85
2022/04/02 03:20:46;;;;;;;;;;;2.80;99.90;;;;;;4976556;28;19930;-85
2022/04/02 03:23:13;;;;;;;;;;;2.90;99.90;;;;;;4976789;28;19930;-84
2022/04/02 03:25:39;;;;;;;;;;;3.60;99.90;;;;;;4976490;28;19926;-85
2022/04/02 03:28:06;;;;;;;;;;;3.20;99.90;;;;;;4976766;28;19930;-84
2022/04/02 03:30:33;;;;;;;;;;;3.00;99.90;;;;;;4992375;28;19929;-86
2022/04/02 03:33:00;;;;;;;;;;;3.70;99.90;;;;;;4996355;28;19930;-86
2022/04/02 03:35:26;;;;;;;;;;;4.00;99.90;;;;;;4995235;28;19976;-86
2022/04/02 03:37:55;;;;;;;;;;;3.20;99.90;;;;;;4976953;28;19930;-86
2022/04/02 03:40:24;;;;;;;;;;;4.30;99.90;;;;;;4990344;28;19926;-85
2022/04/02 03:42:51;;;;;;;;;;;3.20;99.90;;;;;;4996037;28;19925;-85
2022/04/02 03:45:18;;;;;;;;;;;3.20;99.90;;;;;;4995746;28;19968;-85
2022/04/02 03:47:45;;;;;;;;;;;2.90;99.90;;;;;;4996113;28;19980;-85
2022/04/02 03:50:12;;;;;;;;;;;2.80;99.90;;;;;;4995997;28;19971;-85
2022/04/02 03:52:39;;;;;;;;;;;2.90;99.90;;;;;;4978637;28;19974;-85
2022/04/02 03:55:08;;;;;;;;;;;4.40;99.90;;;;;;4975855;28;19981;-86
2022/04/02 03:57:47;;;;;;;;;;;2.80;99.90;;;;;;4976228;28;19926;-85
2022/04/02 04:00:14;;;;;;;;;;;2.80;99.90;;;;;;4976097;28;19926;-84
2022/04/02 04:02:41;;;;;;;;;;;2.80;99.90;;;;;;4976464;28;20300;-85
2022/04/02 04:05:09;;;;;;;;;;;2.80;99.90;;;;;;4994921;28;20337;-85
2022/04/02 04:07:36;;;;;;;;;;;2.70;99.90;;;;;;4995653;28;20299;-86
2022/04/02 04:10:03;;;;;;;;;;;4.50;99.90;;;;;;4995527;28;20288;-86
2022/04/02 04:12:32;;;;;;;;;;;2.60;99.90;;;;;;4995608;28;19926;-84
2022/04/02 04:14:58;;;;;;;;;;;2.80;99.90;;;;;;4992127;28;19933;-87
2022/04/02 04:17:25;;;;;;;;;;;2.80;99.90;;;;;;4985226;28;19949;-83
2022/04/02 04:19:52;;;;;;;;;;;2.60;99.90;;;;;;4986763;28;19989;-85
2022/04/02 04:22:20;;;;;;;;;;;2.60;99.90;;;;;;4984062;28;19926;-84
2022/04/02 04:24:47;;;;;;;;;;;4.30;99.90;;;;;;4978515;28;19930;-83
2022/04/02 04:27:13;;;;;;;;;;;2.50;99.90;;;;;;4976355;28;20424;-84
2022/04/02 04:29:42;;;;;;;;;;;3.40;99.90;;;;;;4976000;28;19973;-85
2022/04/02 04:32:09;;;;;;;;;;;2.40;99.90;;;;;;4993585;28;19973;-85
2022/04/02 04:34:35;;;;;;;;;;;2.10;99.90;;;;;;4995451;28;19926;-86
2022/04/02 04:37:02;;;;;;;;;;;2.30;99.90;;;;;;4980981;28;19933;-85
2022/04/02 04:39:29;;;;;;;;;;;2.30;99.90;;;;;;4975425;28;19926;-86
2022/04/02 04:41:56;;;;;;;;;;;1.60;99.90;;;;;;4990627;28;20402;-85
2022/04/02 04:44:23;;;;;;;;;;;3.10;99.90;;;;;;4995384;28;19926;-86
2022/04/02 04:46:51;;;;;;;;;;;3.80;99.90;;;;;;4994943;28;19930;-82
2022/04/02 04:49:18;;;;;;;;;;;1.40;99.90;;;;;;4994853;28;20403;-86
2022/04/02 04:51:44;;;;;;;;;;;2.30;99.90;;;;;;4982067;28;19930;-87
2022/04/02 04:54:11;;;;;;;;;;;2.20;99.90;;;;;;4975418;28;20444;-86
2022/04/02 04:56:38;;;;;;;;;;;2.40;99.90;;;;;;4975135;28;19934;-86
2022/04/02 04:59:05;;;;;;;;;;;2.60;99.90;;;;;;4975354;28;19930;-85
2022/04/02 05:01:32;;;;;;;;;;;2.50;99.90;;;;;;4986351;28;19930;-85
2022/04/02 05:04:00;;;;;;;;;;;2.60;99.90;;;;;;4994838;28;20284;-84
2022/04/02 05:06:27;;;;;;;;;;;3.40;99.90;;;;;;4993980;28;19929;-86
2022/04/02 05:08:54;;;;;;;;;;;4.20;99.90;;;;;;4994757;28;19933;-86
2022/04/02 05:11:21;;;;;;;;;;;2.90;99.90;;;;;;4986126;28;20304;-84
2022/04/02 05:13:48;;;;;;;;;;;2.80;99.90;;;;;;4975081;28;20400;-83
2022/04/02 05:16:15;;;;;;;;;;;2.90;99.90;;;;;;4975313;28;19976;-88
2022/04/02 05:18:43;;;;;;;;;;;3.40;99.90;;;;;;4975213;28;19973;-86
2022/04/02 05:21:12;;;;;;;;;;;2.40;99.90;;;;;;4975135;28;19927;-88
2022/04/02 05:23:38;;;;;;;;;;;3.70;99.90;;;;;;4975242;28;19926;-87
2022/04/02 05:26:05;;;;;;;;;;;2.90;99.90;;;;;;4974759;28;20004;-87
2022/04/02 05:28:32;;;;;;;;;;;4.50;99.90;;;;;;4974920;28;19962;-85
2022/04/02 05:30:59;;;;;;;;;;;2.80;99.90;;;;;;4974825;28;19973;-84
2022/04/02 05:33:26;;;;;;;;;;;2.90;99.90;;;;;;4974424;28;19930;-87
2022/04/02 05:35:52;;;;;;;;;;;2.70;99.90;;;;;;4978775;28;19926;-88
2022/04/02 05:38:21;;;;;;;;;;;4.80;99.90;;;;;;4993542;28;20369;-87
2022/04/02 05:40:47;;;;;;;;;;;2.60;99.90;;;;;;4993456;28;20380;-84
2022/04/02 05:43:14;;;;;;;;;;;2.60;99.90;;;;;;4993888;28;19980;-86
2022/04/02 05:45:41;;;;;;;;;;;2.60;99.90;;;;;;4994412;28;19925;-85
2022/04/02 05:48:08;;;;;;;;;;;2.50;99.90;;;;;;4989543;28;19930;-85
2022/04/02 05:50:35;;;;;;;;;;;2.60;99.90;;;;;;4975116;28;20389;-85
2022/04/02 05:53:01;;;;;;;;;;;4.60;99.90;;;;;;4975031;28;19930;-86
2022/04/02 05:55:30;;;;;;;;;;;2.50;99.90;;;;;;4974804;28;20303;-86
2022/04/02 05:57:57;;;;;;;;;;;2.80;99.90;;;;;;4974952;28;19926;-85
2022/04/02 06:00:25;;;;;;;;;;;2.70;99.90;;;;;;4994026;28;20028;-85
2022/04/02 06:02:52;;;;;;;;;;;2.70;99.90;;;;;;4976609;28;20373;-86
2022/04/02 06:05:19;;;;;;;;;;;2.50;99.90;;;;;;4974720;28;19930;-85
2022/04/02 06:07:45;;;;;;;;;;;2.80;99.90;;;;;;4974754;28;19926;-86
2022/04/02 06:10:13;;;;;;;;;;;2.80;99.90;;;;;;4974616;28;20036;-85
2022/04/02 06:12:42;;;;;;;;;;;4.60;99.90;;;;;;4988803;28;20357;-85
2022/04/02 06:15:09;;;;;;;;;;;3.60;99.90;;;;;;4994234;28;20004;-85
2022/04/02 06:17:36;;;;;;;;;;;3.30;99.90;;;;;;4995038;28;20368;-86
2022/04/02 06:20:03;;;;;;;;;;;3.50;99.90;;;;;;4997593;28;19957;-86
2022/04/02 06:22:30;;;;;;;;;;;3.60;99.90;;;;;;4997009;28;19926;-87
2022/04/02 06:24:57;;;;;;;;;;;2.90;99.90;;;;;;4997433;28;19953;-86
2022/04/02 06:27:24;;;;;;;;;;;3.70;99.90;;;;;;4998369;28;19964;-85
2022/04/02 06:29:52;;;;;;;;;;;4.70;99.90;;;;;;5000667;28;19925;-85
2022/04/02 06:32:21;;;;;;;;;;;2.20;99.90;;;;;;5007819;28;19937;-83
2022/04/02 06:34:47;;;;;;;;;;;3.50;99.90;;;;;;4992071;28;19950;-84
2022/04/02 06:37:14;;;;;;;;;;;4.30;99.90;;;;;;4987786;28;19985;-82
2022/04/02 06:39:41;;;;;;;;;;;3.50;99.90;;;;;;4981904;28;19926;-86
2022/04/02 06:42:08;;;;;;;;;;;3.60;99.90;;;;;;4978657;28;19977;-84
2022/04/02 06:44:35;;;;;;;;;;;3.70;99.90;;;;;;4986539;28;19925;-86
2022/04/02 06:47:03;;;;;;;;;;;3.10;99.90;;;;;;4996985;28;19926;-85
2022/04/02 06:49:30;;;;;;;;;;;3.70;99.90;;;;;;4997173;28;19980;-85
2022/04/02 06:51:57;;;;;;;;;;;5.00;99.90;;;;;;4996724;28;19973;-87
2022/04/02 06:54:24;;;;;;;;;;;3.90;99.90;;;;;;4989291;28;19930;-85
2022/04/02 06:56:51;;;;;;;;;;;4.90;99.90;;;;;;4977514;28;19981;-85
2022/04/02 06:59:18;;;;;;;;;;;5.40;99.90;;;;;;4977471;28;19926;-84
2022/04/02 07:01:44;;;;;;;;;;;4.50;99.90;;;;;;4977491;28;20380;-86
2022/04/02 07:04:12;;;;;;;;;;;4.20;99.90;;;;;;4979039;28;19965;-86
2022/04/02 07:06:44;;;;;;;;;;;4.30;99.90;;;;;;4978124;28;19950;-86
2022/04/02 07:09:11;;;;;;;;;;;5.20;99.90;;;;;;4977070;28;20419;-86
2022/04/02 07:11:37;;;;;;;;;;;5.80;99.90;;;;;;4977024;28;19981;-85
2022/04/02 07:14:04;;;;;;;;;;;5.50;99.90;;;;;;4986957;28;19965;-85
2022/04/02 07:16:31;;;;;;;;;;;5.10;99.90;;;;;;4996337;28;19930;-84
2022/04/02 07:18:58;;;;;;;;;;;5.20;99.90;;;;;;4997162;28;19989;-85
2022/04/02 07:21:27;;;;;;;;;;;5.90;99.90;;;;;;4996262;28;20501;-85
2022/04/02 07:23:54;;;;;;;;;;;4.00;99.90;;;;;;4988278;28;19969;-85
2022/04/02 07:26:21;;;;;;;;;;;5.00;99.90;;;;;;4961570;28;19926;-87
2022/04/02 07:28:48;;;;;;;;;;;5.00;99.90;;;;;;4996321;28;20381;-84
2022/04/02 07:31:15;;;;;;;;;;;5.10;99.90;;;;;;4996280;28;19926;-85
2022/04/02 07:33:42;;;;;;;;;;;5.00;99.90;;;;;;4996362;28;19930;-86
2022/04/02 07:36:15;;;;;;;;;;;6.10;99.90;;;;;;4989770;28;19977;-87
2022/04/02 07:38:49;;;;;;;;;;;5.40;99.90;;;;;;4995922;28;20369;-85
2022/04/02 07:41:22;;;;;;;;;;;5.20;99.90;;;;;;4996191;28;20274;-86
2022/04/02 07:43:51;;;;;;;;;;;5.20;99.90;;;;;;4996233;28;19929;-87
2022/04/02 07:46:19;;;;;;;;;;;5.90;99.90;;;;;;4995705;28;19926;-86
2022/04/02 07:48:46;;;;;;;;;;;5.50;99.90;;;;;;4978484;28;19926;-87
2022/04/02 07:51:15;;;;;;;;;;;5.50;99.90;;;;;;4977921;28;19996;-85
2022/04/02 07:53:54;;;;;;;;;;;5.50;99.90;;;;;;4977070;28;19932;-86
2022/04/02 07:56:27;;;;;;;;;;;5.40;99.90;;;;;;4978696;28;19981;-86
2022/04/02 07:59:00;;;;;;;;;;;5.70;99.90;;;;;;4994941;28;19980;-84
2022/04/02 08:01:27;;;;;;;;;;;5.70;99.90;;;;;;4996150;28;19926;-86
2022/04/02 08:03:55;;;;;;;;;;;5.80;99.90;;;;;;4997591;28;19926;-86
2022/04/02 08:06:22;;;;;;;;;;;5.70;99.90;;;;;;4995878;28;19925;-85
2022/04/02 08:08:51;;;;;;;;;;;5.60;99.90;;;;;;4983403;28;19977;-85
2022/04/02 08:11:18;;;;;;;;;;;5.80;99.90;;;;;;4977313;28;19926;-87
2022/04/02 08:13:46;;;;;;;;;;;5.70;99.90;;;;;;4976499;28;19930;-86
2022/04/02 08:16:12;;;;;;;;;;;6.80;99.90;;;;;;4976817;28;19973;-86
2022/04/02 08:18:40;;;;;;;;;;;6.20;99.90;;;;;;4977931;28;20372;-86
2022/04/02 08:21:07;;;;;;;;;;;5.50;99.90;;;;;;4976359;28;19926;-86
2022/04/02 08:23:34;;;;;;;;;;;6.60;99.90;;;;;;4975734;28;19989;-87
2022/04/02 08:26:20;;;;;;;;;;;6.30;99.90;;;;;;4976011;28;19930;-87
2022/04/02 08:28:52;;;;;;;;;;;6.30;99.90;;;;;;4976408;28;19926;-88
2022/04/02 08:31:25;;;;;;;;;;;6.40;99.90;;;;;;4975252;28;19930;-86
2022/04/02 08:34:00;;;;;;;;;;;5.50;99.90;;;;;;4978305;28;20304;-86
2022/04/02 08:36:28;;;;;;;;;;;6.60;99.90;;;;;;4985940;28;19980;-85
2022/04/02 08:39:01;;;;;;;;;;;5.60;99.90;;;;;;4976309;28;19930;-87
2022/04/02 08:41:43;;;;;;;;;;;6.70;99.90;;;;;;4995641;28;20001;-85
2022/04/02 08:44:18;;;;;;;;;;;7.10;99.90;;;;;;4998387;28;19972;-84
2022/04/02 08:46:53;;;;;;;;;;;6.60;99.90;;;;;;4998277;28;19997;-84
2022/04/02 08:49:22;;;;;;;;;;;6.60;99.90;;;;;;4981350;28;19933;-82
2022/04/02 08:52:04;;;;;;;;;;;6.70;99.90;;;;;;4978560;28;19937;-82
2022/04/02 08:54:39;;;;;;;;;;;6.60;99.90;;;;;;4977002;28;19926;-85
2022/04/02 08:57:15;;;;;;;;;;;7.00;99.90;;;;;;4977314;28;19927;-85
2022/04/02 08:59:42;;;;;;;;;;;6.80;99.90;;;;;;4975900;28;19926;-86
2022/04/02 09:02:28;;;;;;;;;;;6.90;99.90;;;;;;4977129;28;20324;-86
2022/04/02 09:05:06;;;;;;;;;;;6.20;99.90;;;;;;4976388;28;20464;-84
2022/04/02 09:07:55;;;;;;;;;;;7.20;99.90;;;;;;4977509;28;19977;-85
2022/04/02 09:10:39;;;;;;;;;;;7.70;99.90;;;;;;4977469;28;19926;-84
2022/04/02 09:13:25;;;;;;;;;;;7.40;99.90;;;;;;4974481;28;19926;-86
2022/04/02 09:16:00;;;;;;;;;;;7.40;99.90;;;;;;4975025;28;20400;-86
2022/04/02 09:18:35;;;;;;;;;;;7.40;99.90;;;;;;4974978;28;20312;-85
2022/04/02 09:21:09;;;;;;;;;;;7.40;99.90;;;;;;4974851;28;19927;-85
2022/04/02 09:23:43;;;;;;;;;;;7.50;99.90;;;;;;4975964;28;19930;-86
2022/04/02 09:26:22;;;;;;;;;;;6.50;99.90;;;;;;4976153;28;20021;-85
2022/04/02 09:29:00;;;;;;;;;;;7.50;99.90;;;;;;4975009;28;19926;-87
2022/04/02 09:31:41;;;;;;;;;;;6.70;99.90;;;;;;4977743;28;19925;-86
2022/04/02 09:34:19;;;;;;;;;;;7.60;99.90;;;;;;4994259;28;20340;-84
2022/04/02 09:36:59;;;;;;;;;;;7.60;99.90;;;;;;4982981;28;20001;-86
2022/04/02 09:39:34;;;;;;;;;;;7.70;99.90;;;;;;4975490;28;19952;-86
2022/04/02 09:42:09;;;;;;;;;;;7.60;99.90;;;;;;4975542;28;20377;-85
2022/04/02 09:44:41;;;;;;;;;;;7.60;99.90;;;;;;4975377;28;20403;-85
2022/04/02 09:47:16;;;;;;;;;;;7.50;99.90;;;;;;4976002;28;19926;-84
2022/04/02 09:49:48;;;;;;;;;;;7.70;99.90;;;;;;4988973;28;19926;-87
2022/04/02 09:52:18;;;;;;;;;;;8.00;99.90;;;;;;4983188;28;19926;-85
2022/04/02 09:54:46;;;;;;;;;;;7.70;99.90;;;;;;4992000;28;19984;-85
2022/04/02 09:57:20;;;;;;;;;;;8.00;99.90;;;;;;4992654;28;19926;-85
2022/04/02 09:59:58;;;;;;;;;;;7.90;99.90;;;;;;4987375;28;19926;-84
2022/04/02 10:02:29;;;;;;;;;;;8.20;99.90;;;;;;4998186;28;19925;-84
2022/04/02 10:04:58;;;;;;;;;;;7.80;99.60;;;;;;4994860;28;19981;-84
2022/04/02 10:07:31;;;;;;;;;;;7.90;99.90;;;;;;4979618;28;20332;-87
2022/04/02 10:09:59;;;;;;;;;;;7.60;99.90;;;;;;4978762;28;19926;-84
2022/04/02 10:12:28;;;;;;;;;;;7.80;99.90;;;;;;4990692;28;19963;-84
2022/04/02 10:14:57;;;;;;;;;;;8.10;99.90;;;;;;4984159;28;19930;-83
2022/04/02 10:17:28;;;;;;;;;;;8.30;99.40;;;;;;4978619;28;19981;-86
2022/04/02 10:19:58;;;;;;;;;;;8.10;98.40;;;;;;4978324;28;20297;-85
2022/04/02 10:22:35;;;;;;;;;;;8.60;97.90;;;;;;4978593;28;19930;-86
2022/04/02 10:25:06;;;;;;;;;;;8.80;97.80;;;;;;4991114;28;19929;-84
2022/04/02 10:27:34;;;;;;;;;;;8.90;97.90;;;;;;4998215;28;19929;-85
2022/04/02 10:30:04;;;;;;;;;;;8.80;97.20;;;;;;4980940;28;19932;-85
2022/04/02 10:32:34;;;;;;;;;;;8.50;96.50;;;;;;4986173;28;19926;-84
2022/04/02 10:35:05;;;;;;;;;;;8.50;96.50;;;;;;4996655;28;19932;-85
2022/04/02 10:37:38;;;;;;;;;;;7.60;96.40;;;;;;4978805;28;19942;-83
2022/04/02 10:40:06;;;;;;;;;;;8.80;97.00;;;;;;4989766;28;20332;-85
2022/04/02 10:42:34;;;;;;;;;;;8.90;96.10;;;;;;4996765;28;19929;-86
2022/04/02 10:45:03;;;;;;;;;;;8.90;96.60;;;;;;4978326;28;20012;-85
2022/04/02 10:47:30;;;;;;;;;;;9.30;96.30;;;;;;4978337;28;19930;-87
2022/04/02 10:50:01;;;;;;;;;;;9.70;95.10;;;;;;4978020;28;19993;-87
2022/04/02 10:52:29;;;;;;;;;;;9.50;95.40;;;;;;4978563;28;19930;-87
2022/04/02 10:54:57;;;;;;;;;;;9.40;95.20;;;;;;4997440;28;19930;-84
2022/04/02 10:57:23;;;;;;;;;;;10.10;93.90;;;;;;5002953;28;19926;-87
2022/04/02 10:59:54;;;;;;;;;;;10.10;92.00;;;;;;5002260;28;20347;-83
2022/04/02 11:02:23;;;;;;;;;;;10.10;92.60;;;;;;4999769;28;19926;-84
2022/04/02 11:04:57;;;;;;;;;;;10.30;92.20;;;;;;4983125;28;20348;-86
2022/04/02 11:07:26;;;;;;;;;;;10.20;92.80;;;;;;4978435;28;19926;-84
2022/04/02 11:09:55;;;;;;;;;;;10.00;92.70;;;;;;4994525;28;19925;-84
2022/04/02 11:12:27;;;;;;;;;;;10.10;92.00;;;;;;4999192;28;19925;-84
2022/04/02 11:14:54;;;;;;;;;;;10.00;92.30;;;;;;4997645;28;20004;-86
2022/04/02 11:17:29;;;;;;;;;;;10.10;92.70;;;;;;4996358;28;19926;-85
2022/04/02 11:20:02;;;;;;;;;;;9.60;92.40;;;;;;4978950;28;19930;-85
2022/04/02 11:22:30;;;;;;;;;;;9.70;93.40;;;;;;4977639;28;20529;-84
2022/04/02 11:25:03;;;;;;;;;;;9.40;93.40;;;;;;4978346;28;19930;-83
2022/04/02 11:27:31;;;;;;;;;;;9.70;94.00;;;;;;4976429;28;19985;-84
2022/04/02 11:30:02;;;;;;;;;;;9.40;94.30;;;;;;4980162;28;19965;-86
2022/04/02 11:32:29;;;;;;;;;;;9.40;93.90;;;;;;4997432;28;19926;-83
2022/04/02 11:34:56;;;;;;;;;;;9.30;94.00;;;;;;4985123;28;19980;-85
2022/04/02 11:37:26;;;;;;;;;;;9.20;94.60;;;;;;4992212;28;20273;-85
2022/04/02 11:39:54;;;;;;;;;;;9.50;94.40;;;;;;4989438;28;19977;-84
2022/04/02 11:42:25;;;;;;;;;;;9.10;94.20;;;;;;4976233;28;19929;-85
2022/04/02 11:44:53;;;;;;;;;;;9.10;94.30;;;;;;4984581;28;19969;-84
2022/04/02 11:47:26;;;;;;;;;;;9.20;94.10;;;;;;4993330;28;19933;-84
2022/04/02 11:49:54;;;;;;;;;;;9.30;94.00;;;;;;4992421;28;20273;-84
2022/04/02 11:52:24;;;;;;;;;;;9.50;93.90;;;;;;4990853;28;20048;-83
2022/04/02 11:55:00;;;;;;;;;;;9.40;92.80;;;;;;4993809;28;19938;-83
2022/04/02 11:57:28;;;;;;;;;;;9.30;93.60;;;;;;4986421;28;20355;-86
2022/04/02 11:59:56;;;;;;;;;;;9.60;93.50;;;;;;4984954;28;20347;-82
2022/04/02 12:02:36;;;;;;;;;;;9.50;93.10;;;;;;4981385;28;19926;-84
2022/04/02 12:05:05;;;;;;;;;;;9.50;93.40;;;;;;4991077;28;19977;-84
2022/04/02 12:07:38;;;;;;;;;;;9.90;93.30;;;;;;4991706;28;19926;-84
2022/04/02 12:10:05;;;;;;;;;;;10.40;93.00;;;;;;4994174;28;20438;-83
2022/04/02 12:12:34;;;;;;;;;;;9.60;93.70;;;;;;4994345;28;19948;-85
2022/04/02 12:15:08;;;;;;;;;;;9.70;93.50;;;;;;4994920;28;19933;-85
2022/04/02 12:17:36;;;;;;;;;;;9.80;93.40;;;;;;4990946;28;19926;-84
2022/04/02 12:20:04;;;;;;;;;;;10.00;93.20;;;;;;4997326;28;19925;-84
2022/04/02 12:22:32;;;;;;;;;;;9.60;93.60;;;;;;4994672;28;19992;-85
2022/04/02 12:24:59;;;;;;;;;;;9.60;93.70;;;;;;4994172;28;19926;-85
2022/04/02 12:27:27;;;;;;;;;;;9.10;93.90;;;;;;4996092;28;20292;-84
2022/04/02 12:29:56;;;;;;;;;;;9.90;92.90;;;;;;4974467;28;20022;-85
2022/04/02 12:32:30;;;;;;;;;;;9.80;92.50;;;;;;4975505;28;19977;-86
2022/04/02 12:35:01;;;;;;;;;;;9.40;92.20;;;;;;4986548;28;19930;-85
2022/04/02 12:37:29;;;;;;;;;;;9.70;92.70;;;;;;4978192;28;19994;-85
2022/04/02 12:39:57;;;;;;;;;;;9.90;93.50;;;;;;4976048;28;19937;-86
2022/04/02 12:42:37;;;;;;;;;;;9.80;92.90;;;;;;4992820;28;19951;-87
2022/04/02 12:45:09;;;;;;;;;;;9.80;92.50;;;;;;4993941;28;19926;-81
2022/04/02 12:47:36;;;;;;;;;;;10.20;92.70;;;;;;4993696;28;19930;-83
2022/04/02 12:50:10;;;;;;;;;;;10.10;91.90;;;;;;4993666;28;20341;-86
2022/04/02 12:52:44;;;;;;;;;;;10.00;91.90;;;;;;4993973;28;19973;-84
2022/04/02 12:55:17;;;;;;;;;;;9.80;92.40;;;;;;4993894;28;20481;-86
2022/04/02 12:57:55;;;;;;;;;;;10.80;91.70;;;;;;4981222;28;19967;-86
2022/04/02 13:00:27;;;;;;;;;;;10.20;92.20;;;;;;4993287;28;20019;-80
2022/04/02 13:02:56;;;;;;;;;;;9.80;91.60;;;;;;4992102;28;20491;-79
2022/04/02 13:05:24;;;;;;;;;;;10.40;91.40;;;;;;4993942;28;19926;-80
2022/04/02 13:08:04;;;;;;;;;;;10.30;91.80;;;;;;4992383;28;19972;-80
2022/04/02 13:10:31;;;;;;;;;;;10.10;91.20;;;;;;4995154;28;20423;-80
2022/04/02 13:13:02;;;;;;;;;;;10.20;90.60;;;;;;4985531;28;19945;-79
2022/04/02 13:15:31;;;;;;;;;;;10.10;91.00;;;;;;4987421;28;19977;-80
2022/04/02 13:21:02;;;;;;;;;;;9.90;91.50;;;;;;4932956;29;20338;-85
2022/04/02 13:23:46;;;;;;;;;;;9.70;90.60;;;;;;4932266;29;19926;-84
2022/04/02 13:26:14;;;;;;;;;;;9.90;90.80;;;;;;4968627;28;20248;-85
2022/04/02 13:28:48;;;;;;;;;;;10.10;90.80;;;;;;4992316;28;19926;-84
2022/04/02 13:31:18;;;;;;;;;;;9.70;89.40;;;;;;4995488;28;19993;-85
2022/04/02 13:34:00;;;;;;;;;;;10.20;89.20;;;;;;4994513;28;19926;-85
2022/04/02 13:36:41;;;;;;;;;;;9.10;88.40;;;;;;4981563;28;20422;-84
2022/04/02 13:39:11;;;;;;;;;;;10.00;88.80;;;;;;4991647;28;19973;-86
2022/04/02 13:41:39;;;;;;;;;;;11.10;89.60;;;;;;4993487;28;19973;-85
2022/04/02 13:44:06;;;;;;;;;;;10.20;90.30;;;;;;4992552;28;20292;-85
2022/04/02 13:46:37;;;;;;;;;;;10.30;88.70;;;;;;4995280;28;19937;-85
2022/04/02 13:49:05;;;;;;;;;;;9.50;88.90;;;;;;4993935;28;19926;-84
2022/04/02 13:51:36;;;;;;;;;;;10.40;89.10;;;;;;4992694;28;19934;-85
2022/04/02 13:54:04;;;;;;;;;;;10.60;87.80;;;;;;4993760;28;20317;-85
2022/04/02 13:56:34;;;;;;;;;;;10.80;88.00;;;;;;4993386;28;19936;-85
2022/04/02 13:59:02;;;;;;;;;;;10.70;87.20;;;;;;4995061;28;19926;-84
2022/04/02 14:01:30;;;;;;;;;;;10.80;87.20;;;;;;4994612;28;19933;-85
2022/04/02 14:04:04;;;;;;;;;;;10.00;86.50;;;;;;4994080;28;19925;-85
2022/04/02 14:06:33;;;;;;;;;;;10.90;84.90;;;;;;4993635;28;19930;-85
2022/04/02 14:09:03;;;;;;;;;;;11.50;86.30;;;;;;4993915;28;19925;-85
2022/04/02 14:11:32;;;;;;;;;;;11.00;85.90;;;;;;4994383;28;20439;-85
2022/04/02 14:14:12;;;;;;;;;;;11.20;83.70;;;;;;4993571;28;20345;-85
2022/04/02 14:16:39;;;;;;;;;;;11.00;83.60;;;;;;4993980;28;19926;-86
2022/04/02 14:19:08;;;;;;;;;;;10.80;84.60;;;;;;4993355;28;20400;-85
2022/04/02 14:21:36;;;;;;;;;;;11.00;83.80;;;;;;4994166;28;20275;-85
2022/04/02 14:24:07;;;;;;;;;;;10.80;83.20;;;;;;4995650;28;19925;-85
2022/04/02 14:26:49;;;;;;;;;;;10.50;82.90;;;;;;4994598;28;20346;-84
2022/04/02 14:29:39;;;;;;;;;;;10.90;83.80;;;;;;4993170;28;20401;-84
2022/04/02 14:32:24;;;;;;;;;;;10.30;84.50;;;;;;4978259;28;19973;-85
2022/04/02 14:35:02;;;;;;;;;;;10.40;83.20;;;;;;4993289;28;19953;-84
2022/04/02 14:37:57;;;;;;;;;;;10.20;83.50;;;;;;4975954;28;20389;-85
2022/04/02 14:40:37;;;;;;;;;;;10.40;82.90;;;;;;4977958;28;19976;-86
2022/04/02 14:43:34;;;;;;;;;;;10.30;82.70;;;;;;4978037;28;19969;-84
2022/04/02 14:46:19;;;;;;;;;;;10.10;82.40;;;;;;4898476;29;19932;-86
2022/04/02 14:49:05;;;;;;;;;;;10.40;81.40;;;;;;4968352;28;19927;-85